createdAt,value
2018-06-12T00:00:48.243Z,91.24
2018-06-12T00:01:48.249Z,91.28
2018-06-12T00:02:48.243Z,91.63
2018-06-12T00:03:48.243Z,91.43
2018-06-12T00:04:48.245Z,91.28
2018-06-12T00:05:48.243Z,91.24
2018-06-12T00:06:48.244Z,91.43
2018-06-12T00:07:48.241Z,91.14
2018-06-12T00:08:48.243Z,91.24
2018-06-12T00:09:48.249Z,91.05
2018-06-12T00:10:48.242Z,90.76
2018-06-12T00:11:48.238Z,91.24
2018-06-12T00:12:48.245Z,90.95
2018-06-12T00:13:48.241Z,91.43
2018-06-12T00:14:48.242Z,90.67
2018-06-12T00:15:48.238Z,90.76
2018-06-12T00:16:48.241Z,91.05
2018-06-12T00:17:48.240Z,90.86
2018-06-12T00:18:48.243Z,90.67
2018-06-12T00:19:48.237Z,91.05
2018-06-12T00:20:48.240Z,90.57
2018-06-12T00:21:48.240Z,90.47
2018-06-12T00:22:48.239Z,90.67
2018-06-12T00:23:48.240Z,90.38
2018-06-12T00:24:48.239Z,90.38
2018-06-12T00:25:48.237Z,90.28
2018-06-12T00:26:48.237Z,90.53
2018-06-12T00:27:48.237Z,89.18
2018-06-12T00:28:48.237Z,89.37
2018-06-12T00:29:48.232Z,89.86
2018-06-12T00:30:48.237Z,89.86
2018-06-12T00:31:48.235Z,89.37
2018-06-12T00:32:48.232Z,89.47
2018-06-12T00:33:48.235Z,89.57
2018-06-12T00:34:48.235Z,89.76
2018-06-12T00:35:48.232Z,89.47
2018-06-12T00:36:48.229Z,89.86
2018-06-12T00:37:48.231Z,89.09
2018-06-12T00:38:48.233Z,88.99
2018-06-12T00:39:48.231Z,89.47
2018-06-12T00:40:48.231Z,88.90
2018-06-12T00:41:48.230Z,89.09
2018-06-12T00:42:48.230Z,88.80
2018-06-12T00:43:48.224Z,88.32
2018-06-12T00:44:48.226Z,88.99
2018-06-12T00:45:48.227Z,88.61
2018-06-12T00:46:48.226Z,88.32
2018-06-12T00:47:48.226Z,88.42
2018-06-12T00:48:48.225Z,88.13
2018-06-12T00:49:48.225Z,88.32
2018-06-12T00:50:48.224Z,88.13
2018-06-12T00:51:48.230Z,87.94
2018-06-12T00:52:48.222Z,87.80
2018-06-12T00:53:48.223Z,87.90
2018-06-12T00:54:48.219Z,87.61
2018-06-12T00:55:48.219Z,87.51
2018-06-12T00:56:48.218Z,87.46
2018-06-12T00:57:48.216Z,87.13
2018-06-12T00:58:48.219Z,86.94
2018-06-12T00:59:48.218Z,87.23
2018-06-12T01:00:48.216Z,86.84
2018-06-12T01:01:48.214Z,87.03
2018-06-12T01:02:48.218Z,87.32
2018-06-12T01:03:48.209Z,86.74
2018-06-12T01:04:48.214Z,86.55
2018-06-12T01:05:48.217Z,86.84
2018-06-12T01:06:48.213Z,86.84
2018-06-12T01:07:48.212Z,86.84
2018-06-12T01:08:48.215Z,86.74
2018-06-12T01:09:48.211Z,86.74
2018-06-12T01:10:48.211Z,86.74
2018-06-12T01:11:48.206Z,86.27
2018-06-12T01:12:48.212Z,86.74
2018-06-12T01:13:48.210Z,85.79
2018-06-12T01:14:48.206Z,86.08
2018-06-12T01:15:48.207Z,85.60
2018-06-12T01:16:48.205Z,85.69
2018-06-12T01:17:48.205Z,85.41
2018-06-12T01:18:48.202Z,85.60
2018-06-12T01:19:48.253Z,85.50
2018-06-12T01:20:48.203Z,84.69
2018-06-12T01:21:48.201Z,85.12
2018-06-12T01:22:48.204Z,85.36
2018-06-12T01:23:48.199Z,85.31
2018-06-12T01:24:48.201Z,85.12
2018-06-12T01:25:48.197Z,85.60
2018-06-12T01:26:48.197Z,84.92
2018-06-12T01:27:48.197Z,84.74
2018-06-12T01:28:48.194Z,84.50
2018-06-12T01:29:48.196Z,84.64
2018-06-12T01:30:48.195Z,84.35
2018-06-12T01:31:48.196Z,84.79
2018-06-12T01:32:48.193Z,84.74
2018-06-12T01:33:48.193Z,84.92
2018-06-12T01:34:48.190Z,84.79
2018-06-12T01:35:48.189Z,84.26
2018-06-12T01:36:48.188Z,84.64
2018-06-12T01:37:48.187Z,84.59
2018-06-12T01:38:48.184Z,84.83
2018-06-12T01:39:48.187Z,83.97
2018-06-12T01:40:48.183Z,84.74
2018-06-12T01:41:48.183Z,84.69
2018-06-12T01:42:48.186Z,85.31
2018-06-12T01:43:48.181Z,85.31
2018-06-12T01:44:48.180Z,85.21
2018-06-12T01:45:48.179Z,85.50
2018-06-12T01:46:48.180Z,85.36
2018-06-12T01:47:48.178Z,85.46
2018-06-12T01:48:48.178Z,85.65
2018-06-12T01:49:48.176Z,85.69
2018-06-12T01:50:48.176Z,85.69
2018-06-12T01:51:48.171Z,85.55
2018-06-12T01:52:48.173Z,85.55
2018-06-12T01:53:48.175Z,85.17
2018-06-12T01:54:48.173Z,85.65
2018-06-12T01:55:48.171Z,85.55
2018-06-12T01:56:48.171Z,85.65
2018-06-12T01:57:48.168Z,85.84
2018-06-12T01:58:48.167Z,85.94
2018-06-12T01:59:48.172Z,86.32
2018-06-12T02:00:48.165Z,86.22
2018-06-12T02:01:48.163Z,86.13
2018-06-12T02:02:48.162Z,85.84
2018-06-12T02:03:48.164Z,86.04
2018-06-12T02:04:48.157Z,86.41
2018-06-12T02:05:48.159Z,86.32
2018-06-12T02:06:48.157Z,86.41
2018-06-12T02:07:48.155Z,86.51
2018-06-12T02:08:48.156Z,86.32
2018-06-12T02:09:48.156Z,86.32
2018-06-12T02:10:48.156Z,86.22
2018-06-12T02:11:48.152Z,86.04
2018-06-12T02:12:48.151Z,86.13
2018-06-12T02:13:48.150Z,86.41
2018-06-12T02:14:48.149Z,86.61
2018-06-12T02:15:48.146Z,86.13
2018-06-12T02:16:48.147Z,86.51
2018-06-12T02:17:48.151Z,86.32
2018-06-12T02:18:48.144Z,87.18
2018-06-12T02:19:48.143Z,86.61
2018-06-12T02:20:48.143Z,86.70
2018-06-12T02:21:48.143Z,86.61
2018-06-12T02:22:48.140Z,86.90
2018-06-12T02:23:48.139Z,86.90
2018-06-12T02:24:48.140Z,87.18
2018-06-12T02:25:48.219Z,87.76
2018-06-12T02:26:48.135Z,87.47
2018-06-12T02:27:48.132Z,87.37
2018-06-12T02:28:48.135Z,87.37
2018-06-12T02:29:48.132Z,87.47
2018-06-12T02:30:48.126Z,87.85
2018-06-12T02:31:48.129Z,87.66
2018-06-12T02:32:48.127Z,87.66
2018-06-12T02:33:48.126Z,88.04
2018-06-12T02:34:48.125Z,88.04
2018-06-12T02:35:48.123Z,87.85
2018-06-12T02:36:48.123Z,88.52
2018-06-12T02:37:48.119Z,87.76
2018-06-12T02:38:48.124Z,87.85
2018-06-12T02:39:48.122Z,87.85
2018-06-12T02:40:48.115Z,87.76
2018-06-12T02:41:48.119Z,87.56
2018-06-12T02:42:48.116Z,87.66
2018-06-12T02:43:48.111Z,87.47
2018-06-12T02:44:48.112Z,87.37
2018-06-12T02:45:48.117Z,87.27
2018-06-12T02:46:48.115Z,87.47
2018-06-12T02:47:48.110Z,87.18
2018-06-12T02:48:48.110Z,87.37
2018-06-12T02:49:48.110Z,87.76
2018-06-12T02:50:48.109Z,87.66
2018-06-12T02:51:48.110Z,87.56
2018-06-12T02:52:48.110Z,87.85
2018-06-12T02:53:48.107Z,87.76
2018-06-12T02:54:48.105Z,87.95
2018-06-12T02:55:48.107Z,87.76
2018-06-12T02:56:48.106Z,88.04
2018-06-12T02:57:48.101Z,87.85
2018-06-12T02:58:48.104Z,87.37
2018-06-12T02:59:48.106Z,87.85
2018-06-12T03:00:48.108Z,88.52
2018-06-12T03:01:48.102Z,87.18
2018-06-12T03:02:48.103Z,87.76
2018-06-12T03:03:48.101Z,87.66
2018-06-12T03:04:48.106Z,87.85
2018-06-12T03:05:48.100Z,88.04
2018-06-12T03:06:48.095Z,87.37
2018-06-12T03:07:48.099Z,87.33
2018-06-12T03:08:48.095Z,87.27
2018-06-12T03:09:48.098Z,87.56
2018-06-12T03:10:48.089Z,87.56
2018-06-12T03:11:48.091Z,87.56
2018-06-12T03:12:48.093Z,87.43
2018-06-12T03:13:48.092Z,87.85
2018-06-12T03:14:48.093Z,87.43
2018-06-12T03:15:48.090Z,87.33
2018-06-12T03:16:48.091Z,87.62
2018-06-12T03:17:48.088Z,87.85
2018-06-12T03:18:48.088Z,87.71
2018-06-12T03:19:48.094Z,87.62
2018-06-12T03:20:48.089Z,87.33
2018-06-12T03:21:48.080Z,87.52
2018-06-12T03:22:48.085Z,87.85
2018-06-12T03:23:48.083Z,88.71
2018-06-12T03:24:48.083Z,88.43
2018-06-12T03:25:48.081Z,88.33
2018-06-12T03:26:48.083Z,88.43
2018-06-12T03:27:48.082Z,89.23
2018-06-12T03:28:48.078Z,89.90
2018-06-12T03:29:48.083Z,89.95
2018-06-12T03:30:48.079Z,89.86
2018-06-12T03:31:48.077Z,90.81
2018-06-12T03:32:48.078Z,91.86
2018-06-12T03:33:48.076Z,91.48
2018-06-12T03:34:48.075Z,91.42
2018-06-12T03:35:48.074Z,91.57
2018-06-12T03:36:48.076Z,91.57
2018-06-12T03:37:48.074Z,91.61
2018-06-12T03:38:48.069Z,90.99
2018-06-12T03:39:48.072Z,90.89
2018-06-12T03:40:48.072Z,90.51
2018-06-12T03:41:48.072Z,90.84
2018-06-12T03:42:48.071Z,91.37
2018-06-12T03:43:48.069Z,90.70
2018-06-12T03:44:48.075Z,91.18
2018-06-12T03:45:48.073Z,90.84
2018-06-12T03:46:48.070Z,90.17
2018-06-12T03:47:48.069Z,89.69
2018-06-12T03:48:48.068Z,88.82
2018-06-12T03:49:48.069Z,88.87
2018-06-12T03:50:48.070Z,88.39
2018-06-12T03:51:48.070Z,88.14
2018-06-12T03:52:48.070Z,86.79
2018-06-12T03:53:48.067Z,87.12
2018-06-12T03:54:48.070Z,86.93
2018-06-12T03:55:48.070Z,86.16
2018-06-12T03:56:48.070Z,85.87
2018-06-12T03:57:48.072Z,84.47
2018-06-12T03:58:48.070Z,83.64
2018-06-12T03:59:48.071Z,82.87
2018-06-12T04:00:48.071Z,83.16
2018-06-12T04:01:48.071Z,81.52
2018-06-12T04:02:48.074Z,81.57
2018-06-12T04:03:48.071Z,80.99
2018-06-12T04:04:48.071Z,80.31
2018-06-12T04:05:48.073Z,79.68
2018-06-12T04:06:48.071Z,78.71
2018-06-12T04:07:48.077Z,78.27
2018-06-12T04:08:48.070Z,77.15
2018-06-12T04:09:48.072Z,76.47
2018-06-12T04:10:48.079Z,75.10
2018-06-12T04:11:48.076Z,74.17
2018-06-12T04:12:48.077Z,72.42
2018-06-12T04:13:48.078Z,72.33
2018-06-12T04:14:48.146Z,71.46
2018-06-12T04:15:48.081Z,72.88
2018-06-12T04:16:48.084Z,73.46
2018-06-12T04:17:48.083Z,72.58
2018-06-12T04:18:48.083Z,74.93
2018-06-12T04:19:48.087Z,76.50
2018-06-12T04:20:48.086Z,78.48
2018-06-12T04:21:48.089Z,80.77
2018-06-12T04:22:48.090Z,83.67
2018-06-12T04:23:48.089Z,85.98
2018-06-12T04:24:48.094Z,87.48
2018-06-12T04:25:48.095Z,88.97
2018-06-12T04:26:48.095Z,89.60
2018-06-12T04:27:48.092Z,89.69
2018-06-12T04:28:48.096Z,88.96
2018-06-12T04:29:48.099Z,87.23
2018-06-12T04:30:48.103Z,86.51
2018-06-12T04:31:48.102Z,85.16
2018-06-12T04:32:48.105Z,84.81
2018-06-12T04:33:48.108Z,83.52
2018-06-12T04:34:48.107Z,85.21
2018-06-12T04:35:48.111Z,86.65
2018-06-12T04:36:48.152Z,87.48
2018-06-12T04:37:48.111Z,87.76
2018-06-12T04:38:48.113Z,89.54
2018-06-12T04:39:48.113Z,89.45
2018-06-12T04:40:48.117Z,89.45
2018-06-12T04:41:48.121Z,89.83
2018-06-12T04:42:48.118Z,89.79
2018-06-12T04:43:48.119Z,90.75
2018-06-12T04:44:48.123Z,91.42
2018-06-12T04:45:48.122Z,90.89
2018-06-12T04:46:48.120Z,88.92
2018-06-12T04:47:48.123Z,87.86
2018-06-12T04:48:48.125Z,87.76
2018-06-12T04:49:48.128Z,88.19
2018-06-12T04:50:48.127Z,87.90
2018-06-12T04:51:48.132Z,87.81
2018-06-12T04:52:48.132Z,87.90
2018-06-12T04:53:48.133Z,87.46
2018-06-12T04:54:48.132Z,86.79
2018-06-12T04:55:48.134Z,86.94
2018-06-12T04:56:48.139Z,88.15
2018-06-12T04:57:48.140Z,88.82
2018-06-12T04:58:48.139Z,89.64
2018-06-12T04:59:48.140Z,89.64
2018-06-12T05:00:48.164Z,89.83
2018-06-12T05:01:48.143Z,90.80
2018-06-12T05:02:48.149Z,89.98
2018-06-12T05:03:48.144Z,88.34
2018-06-12T05:04:48.145Z,88.63
2018-06-12T05:05:48.144Z,89.50
2018-06-12T05:06:48.148Z,90.12
2018-06-12T05:07:48.149Z,90.31
2018-06-12T05:08:48.154Z,90.31
2018-06-12T05:09:48.153Z,91.04
2018-06-12T05:10:48.156Z,91.52
2018-06-12T05:11:48.156Z,91.13
2018-06-12T05:12:48.157Z,91.28
2018-06-12T05:13:48.158Z,91.33
2018-06-12T05:14:48.159Z,91.23
2018-06-12T05:15:48.162Z,91.61
2018-06-12T05:16:48.163Z,91.86
2018-06-12T05:17:48.165Z,92.00
2018-06-12T05:18:48.163Z,91.33
2018-06-12T05:19:48.163Z,90.36
2018-06-12T05:20:48.165Z,87.85
2018-06-12T05:21:48.166Z,84.09
2018-06-12T05:22:48.171Z,81.76
2018-06-12T05:23:48.162Z,78.94
2018-06-12T05:24:48.167Z,76.28
2018-06-12T05:25:48.181Z,75.16
2018-06-12T05:26:48.174Z,74.35
2018-06-12T05:27:48.171Z,74.29
2018-06-12T05:28:48.175Z,73.61
2018-06-12T05:29:48.175Z,72.42
2018-06-12T05:30:48.174Z,71.75
2018-06-12T05:31:48.177Z,70.78
2018-06-12T05:32:48.183Z,69.82
2018-06-12T05:33:48.181Z,72.28
2018-06-12T05:34:48.177Z,72.80
2018-06-12T05:35:48.189Z,74.16
2018-06-12T05:36:48.185Z,75.43
2018-06-12T05:37:48.188Z,77.13
2018-06-12T05:38:48.189Z,76.40
2018-06-12T05:39:48.192Z,74.64
2018-06-12T05:40:48.194Z,71.81
2018-06-12T05:41:48.194Z,69.24
2018-06-12T05:42:48.198Z,68.59
2018-06-12T05:43:48.200Z,68.37
2018-06-12T05:44:48.198Z,66.27
2018-06-12T05:45:48.204Z,66.85
2018-06-12T05:46:48.256Z,67.17
2018-06-12T05:47:48.210Z,67.62
2018-06-12T05:48:48.211Z,70.70
2018-06-12T05:49:48.213Z,72.99
2018-06-12T05:50:48.215Z,71.64
2018-06-12T05:51:48.217Z,69.10
2018-06-12T05:52:48.219Z,67.30
2018-06-12T05:53:48.223Z,65.82
2018-06-12T05:54:48.224Z,63.65
2018-06-12T05:55:48.252Z,62.01
2018-06-12T05:56:48.229Z,60.49
2018-06-12T05:57:48.236Z,58.97
2018-06-12T05:58:48.233Z,57.93
2018-06-12T05:59:48.235Z,58.78
2018-06-12T06:00:48.240Z,61.02
2018-06-12T06:01:48.239Z,63.34
2018-06-12T06:02:48.243Z,62.95
2018-06-12T06:03:48.248Z,64.01
2018-06-12T06:04:48.249Z,67.62
2018-06-12T06:05:48.251Z,70.44
2018-06-12T06:06:48.256Z,72.33
2018-06-12T06:07:48.252Z,73.74
2018-06-12T06:08:48.257Z,74.90
2018-06-12T06:09:48.263Z,75.82
2018-06-12T06:10:48.267Z,77.17
2018-06-12T06:11:48.274Z,76.98
2018-06-12T06:12:48.272Z,77.75
2018-06-12T06:13:48.273Z,78.58
2018-06-12T06:14:48.277Z,78.67
2018-06-12T06:15:48.280Z,78.77
2018-06-12T06:16:48.284Z,79.40
2018-06-12T06:17:48.286Z,81.19
2018-06-12T06:18:48.286Z,81.96
2018-06-12T06:19:48.288Z,81.67
2018-06-12T06:20:48.292Z,82.34
2018-06-12T06:21:48.294Z,82.59
2018-06-12T06:22:48.302Z,82.49
2018-06-12T06:23:48.299Z,82.97
2018-06-12T06:24:48.302Z,83.89
2018-06-12T06:25:48.302Z,83.60
2018-06-12T06:26:48.304Z,84.75
2018-06-12T06:27:48.303Z,84.81
2018-06-12T06:28:48.306Z,84.81
2018-06-12T06:29:48.346Z,85.14
2018-06-12T06:30:48.314Z,84.75
2018-06-12T06:31:48.312Z,84.56
2018-06-12T06:32:48.315Z,84.51
2018-06-12T06:33:48.316Z,82.87
2018-06-12T06:34:48.319Z,82.87
2018-06-12T06:35:48.318Z,82.93
2018-06-12T06:36:48.328Z,83.89
2018-06-12T06:37:48.326Z,84.18
2018-06-12T06:38:48.327Z,84.95
2018-06-12T06:39:48.327Z,84.37
2018-06-12T06:40:48.325Z,83.80
2018-06-12T06:41:48.329Z,83.98
2018-06-12T06:42:48.332Z,84.56
2018-06-12T06:43:48.329Z,83.16
2018-06-12T06:44:48.333Z,82.10
2018-06-12T06:45:48.333Z,81.76
2018-06-12T06:46:48.336Z,81.38
2018-06-12T06:47:48.333Z,80.99
2018-06-12T06:48:48.338Z,80.51
2018-06-12T06:49:48.355Z,80.61
2018-06-12T06:50:48.338Z,80.61
2018-06-12T06:51:48.340Z,80.61
2018-06-12T06:52:48.344Z,79.17
2018-06-12T06:53:48.345Z,79.27
2018-06-12T06:54:48.346Z,80.22
2018-06-12T06:55:48.347Z,81.19
2018-06-12T06:56:48.348Z,81.19
2018-06-12T06:57:48.355Z,80.99
2018-06-12T06:58:48.389Z,81.38
2018-06-12T06:59:48.356Z,80.90
2018-06-12T07:00:48.359Z,80.51
2018-06-12T07:01:48.356Z,80.99
2018-06-12T07:02:48.359Z,80.13
2018-06-12T07:03:48.359Z,81.57
2018-06-12T07:04:48.361Z,81.82
2018-06-12T07:05:48.362Z,82.49
2018-06-12T07:06:48.364Z,83.16
2018-06-12T07:07:48.362Z,83.54
2018-06-12T07:08:48.372Z,83.98
2018-06-12T07:09:48.370Z,84.47
2018-06-12T07:10:48.369Z,84.37
2018-06-12T07:11:48.370Z,85.00
2018-06-12T07:12:48.370Z,84.91
2018-06-12T07:13:48.375Z,85.96
2018-06-12T07:14:48.374Z,86.15
2018-06-12T07:15:48.376Z,85.67
2018-06-12T07:16:48.376Z,85.77
2018-06-12T07:17:48.379Z,87.11
2018-06-12T07:18:48.380Z,85.48
2018-06-12T07:19:48.452Z,85.38
2018-06-12T07:20:48.382Z,85.77
2018-06-12T07:21:48.389Z,86.15
2018-06-12T07:22:48.383Z,85.67
2018-06-12T07:23:48.385Z,84.91
2018-06-12T07:24:48.386Z,84.71
2018-06-12T07:25:48.388Z,83.75
2018-06-12T07:26:48.390Z,83.47
2018-06-12T07:27:48.393Z,83.22
2018-06-12T07:28:48.388Z,82.26
2018-06-12T07:29:48.393Z,82.30
2018-06-12T07:30:48.394Z,82.20
2018-06-12T07:31:48.394Z,80.47
2018-06-12T07:32:48.539Z,80.42
2018-06-12T07:33:48.397Z,80.71
2018-06-12T07:34:48.398Z,79.90
2018-06-12T07:35:48.400Z,79.71
2018-06-12T07:36:48.402Z,78.88
2018-06-12T07:37:48.443Z,76.96
2018-06-12T07:38:48.406Z,76.86
2018-06-12T07:39:48.409Z,76.57
2018-06-12T07:40:48.405Z,77.06
2018-06-12T07:41:48.408Z,78.02
2018-06-12T07:42:48.413Z,76.81
2018-06-12T07:43:48.414Z,76.48
2018-06-12T07:44:48.416Z,77.50
2018-06-12T07:45:48.415Z,78.17
2018-06-12T07:46:48.423Z,79.46
2018-06-12T07:47:48.421Z,77.98
2018-06-12T07:48:48.416Z,76.82
2018-06-12T07:49:48.419Z,78.45
2018-06-12T07:50:48.427Z,79.32
2018-06-12T07:51:48.427Z,78.65
2018-06-12T07:52:48.427Z,79.90
2018-06-12T07:53:48.424Z,79.71
2018-06-12T07:54:48.427Z,78.94
2018-06-12T07:55:48.433Z,78.45
2018-06-12T07:56:48.431Z,79.13
2018-06-12T07:57:48.433Z,78.84
2018-06-12T07:58:48.436Z,78.65
2018-06-12T07:59:48.624Z,78.45
2018-06-12T08:00:48.464Z,78.94
2018-06-12T08:01:48.556Z,78.36
2018-06-12T08:02:48.441Z,78.17
2018-06-12T08:03:48.443Z,78.45
2018-06-12T08:04:48.444Z,78.45
2018-06-12T08:05:48.445Z,78.55
2018-06-12T08:06:48.449Z,79.42
2018-06-12T08:07:48.586Z,79.13
2018-06-12T08:08:48.449Z,78.55
2018-06-12T08:09:48.665Z,78.36
2018-06-12T08:10:48.454Z,79.36
2018-06-12T08:11:48.454Z,79.55
2018-06-12T08:12:48.472Z,77.83
2018-06-12T08:13:48.459Z,77.83
2018-06-12T08:14:48.459Z,78.15
2018-06-12T08:15:48.461Z,77.29
2018-06-12T08:16:48.531Z,76.96
2018-06-12T08:17:48.466Z,77.15
2018-06-12T08:18:48.467Z,76.77
2018-06-12T08:19:48.471Z,78.02
2018-06-12T08:20:48.472Z,78.36
2018-06-12T08:21:48.538Z,78.55
2018-06-12T08:22:48.472Z,78.69
2018-06-12T08:23:48.487Z,78.45
2018-06-12T08:24:48.480Z,78.30
2018-06-12T08:25:48.476Z,79.17
2018-06-12T08:26:48.481Z,78.11
2018-06-12T08:27:48.475Z,78.02
2018-06-12T08:28:48.482Z,79.07
2018-06-12T08:29:48.571Z,80.22
2018-06-12T08:30:48.485Z,79.79
2018-06-12T08:31:48.480Z,77.29
2018-06-12T08:32:48.487Z,76.50
2018-06-12T08:33:48.489Z,76.07
2018-06-12T08:34:48.495Z,76.36
2018-06-12T08:35:48.499Z,76.23
2018-06-12T08:36:48.496Z,76.52
2018-06-12T08:37:48.497Z,77.09
2018-06-12T08:38:48.497Z,78.15
2018-06-12T08:39:48.586Z,77.67
2018-06-12T08:40:48.542Z,77.00
2018-06-12T08:41:48.504Z,77.38
2018-06-12T08:42:48.506Z,77.13
2018-06-12T08:43:48.507Z,76.96
2018-06-12T08:44:48.508Z,77.48
2018-06-12T08:45:48.522Z,78.15
2018-06-12T08:46:48.514Z,78.15
2018-06-12T08:47:48.511Z,77.19
2018-06-12T08:48:48.515Z,77.13
2018-06-12T08:49:48.551Z,77.23
2018-06-12T08:50:48.520Z,76.75
2018-06-12T08:51:48.523Z,76.26
2018-06-12T08:52:48.524Z,77.61
2018-06-12T08:53:48.526Z,75.94
2018-06-12T08:54:48.530Z,76.04
2018-06-12T08:55:48.530Z,77.00
2018-06-12T08:56:48.534Z,77.19
2018-06-12T08:57:48.534Z,77.63
2018-06-12T08:58:48.536Z,79.02
2018-06-12T08:59:48.539Z,78.34
2018-06-12T09:00:48.544Z,77.58
2018-06-12T09:01:48.564Z,77.61
2018-06-12T09:02:48.545Z,77.13
2018-06-12T09:03:48.549Z,75.88
2018-06-12T09:04:48.549Z,75.02
2018-06-12T09:05:48.709Z,75.92
2018-06-12T09:06:48.552Z,76.46
2018-06-12T09:07:48.554Z,76.07
2018-06-12T09:08:48.645Z,76.17
2018-06-12T09:09:48.583Z,76.56
2018-06-12T09:10:48.560Z,77.00
2018-06-12T09:11:48.563Z,77.38
2018-06-12T09:12:48.565Z,77.04
2018-06-12T09:13:48.673Z,77.71
2018-06-12T09:14:48.569Z,77.48
2018-06-12T09:15:48.569Z,77.23
2018-06-12T09:16:48.578Z,78.25
2018-06-12T09:17:48.574Z,77.86
2018-06-12T09:18:48.576Z,77.38
2018-06-12T09:19:48.577Z,77.29
2018-06-12T09:20:48.580Z,77.76
2018-06-12T09:21:48.581Z,77.96
2018-06-12T09:22:48.586Z,76.90
2018-06-12T09:23:48.884Z,76.81
2018-06-12T09:24:48.612Z,77.19
2018-06-12T09:25:48.589Z,78.53
2018-06-12T09:26:48.593Z,78.09
2018-06-12T09:27:48.594Z,77.84
2018-06-12T09:28:48.599Z,77.17
2018-06-12T09:29:48.597Z,76.31
2018-06-12T09:30:48.613Z,75.31
2018-06-12T09:31:48.602Z,75.98
2018-06-12T09:32:48.602Z,75.98
2018-06-12T09:33:48.666Z,76.04
2018-06-12T09:34:48.611Z,76.36
2018-06-12T09:35:48.610Z,76.46
2018-06-12T09:36:48.612Z,75.69
2018-06-12T09:37:48.616Z,75.11
2018-06-12T09:38:48.649Z,74.57
2018-06-12T09:39:48.617Z,74.29
2018-06-12T09:40:48.709Z,75.49
2018-06-12T09:41:48.627Z,75.49
2018-06-12T09:42:48.625Z,75.40
2018-06-12T09:43:49.007Z,75.84
2018-06-12T09:44:48.634Z,76.94
2018-06-12T09:45:48.632Z,76.46
2018-06-12T09:46:48.637Z,75.92
2018-06-12T09:47:48.638Z,76.69
2018-06-12T09:48:48.637Z,75.82
2018-06-12T09:49:48.641Z,74.73
2018-06-12T09:50:48.639Z,75.24
2018-06-12T09:51:48.643Z,75.54
2018-06-12T09:52:48.646Z,74.48
2018-06-12T09:53:48.646Z,74.48
2018-06-12T09:54:48.650Z,74.82
2018-06-12T09:55:48.653Z,74.73
2018-06-12T09:56:48.772Z,74.63
2018-06-12T09:57:48.719Z,75.24
2018-06-12T09:58:48.776Z,75.54
2018-06-12T09:59:48.665Z,74.22
2018-06-12T10:00:48.671Z,73.16
2018-06-12T10:01:48.693Z,74.80
2018-06-12T10:02:48.670Z,74.03
2018-06-12T10:03:48.670Z,72.05
2018-06-12T10:04:48.676Z,71.56
2018-06-12T10:05:48.676Z,72.08
2018-06-12T10:06:48.731Z,72.47
2018-06-12T10:07:48.715Z,71.54
2018-06-12T10:08:48.734Z,72.21
2018-06-12T10:09:48.687Z,69.71
2018-06-12T10:10:48.824Z,70.64
2018-06-12T10:11:48.687Z,70.44
2018-06-12T10:12:48.694Z,70.25
2018-06-12T10:13:48.700Z,70.83
2018-06-12T10:14:48.710Z,72.20
2018-06-12T10:15:48.709Z,72.20
2018-06-12T10:16:48.699Z,73.36
2018-06-12T10:17:48.705Z,73.07
2018-06-12T10:18:48.762Z,72.01
2018-06-12T10:19:48.712Z,72.88
2018-06-12T10:20:48.726Z,71.04
2018-06-12T10:21:48.719Z,70.95
2018-06-12T10:22:48.719Z,70.56
2018-06-12T10:23:48.722Z,70.92
2018-06-12T10:24:48.781Z,71.78
2018-06-12T10:25:48.728Z,71.04
2018-06-12T10:26:48.729Z,71.24
2018-06-12T10:27:48.733Z,71.53
2018-06-12T10:28:48.757Z,71.43
2018-06-12T10:29:48.738Z,70.95
2018-06-12T10:30:48.735Z,71.30
2018-06-12T10:31:48.777Z,71.49
2018-06-12T10:32:48.747Z,71.40
2018-06-12T10:33:48.747Z,71.30
2018-06-12T10:34:48.750Z,71.62
2018-06-12T10:35:48.751Z,71.43
2018-06-12T10:36:48.754Z,71.24
2018-06-12T10:37:48.757Z,70.95
2018-06-12T10:38:48.761Z,70.21
2018-06-12T10:39:48.761Z,69.25
2018-06-12T10:40:48.831Z,68.87
2018-06-12T10:41:48.860Z,69.41
2018-06-12T10:42:48.772Z,70.79
2018-06-12T10:43:48.776Z,70.18
2018-06-12T10:44:48.776Z,70.89
2018-06-12T10:45:48.779Z,70.86
2018-06-12T10:46:48.780Z,71.01
2018-06-12T10:47:48.782Z,71.40
2018-06-12T10:48:48.786Z,72.88
2018-06-12T10:49:48.787Z,73.55
2018-06-12T10:50:48.792Z,72.07
2018-06-12T10:51:48.792Z,71.43
2018-06-12T10:52:48.796Z,70.86
2018-06-12T10:53:49.885Z,70.66
2018-06-12T10:54:48.797Z,72.84
2018-06-12T10:55:48.805Z,72.59
2018-06-12T10:56:48.806Z,71.72
2018-06-12T10:57:48.805Z,72.78
2018-06-12T10:58:48.808Z,71.97
2018-06-12T10:59:49.317Z,72.55
2018-06-12T11:00:48.812Z,72.74
2018-06-12T11:01:48.816Z,72.55
2018-06-12T11:02:48.816Z,73.42
2018-06-12T11:03:48.822Z,73.47
2018-06-12T11:04:48.816Z,74.05
2018-06-12T11:05:48.820Z,74.48
2018-06-12T11:06:48.827Z,73.47
2018-06-12T11:07:48.827Z,73.47
2018-06-12T11:08:48.838Z,73.28
2018-06-12T11:09:48.830Z,73.57
2018-06-12T11:10:48.858Z,74.48
2018-06-12T11:11:49.067Z,74.48
2018-06-12T11:12:48.835Z,72.90
2018-06-12T11:13:48.838Z,72.23
2018-06-12T11:14:48.841Z,72.94
2018-06-12T11:15:48.844Z,73.51
2018-06-12T11:16:48.845Z,73.51
2018-06-12T11:17:48.849Z,73.80
2018-06-12T11:18:48.855Z,71.97
2018-06-12T11:19:48.850Z,72.55
2018-06-12T11:20:48.998Z,72.52
2018-06-12T11:21:49.198Z,73.80
2018-06-12T11:22:48.850Z,73.77
2018-06-12T11:23:48.855Z,73.96
2018-06-12T11:24:50.241Z,73.77
2018-06-12T11:25:48.863Z,73.86
2018-06-12T11:26:48.865Z,73.57
2018-06-12T11:27:48.864Z,73.19
2018-06-12T11:28:48.865Z,73.22
2018-06-12T11:29:48.869Z,73.51
2018-06-12T11:30:48.875Z,73.51
2018-06-12T11:31:49.207Z,73.32
2018-06-12T11:32:48.880Z,73.61
2018-06-12T11:33:49.086Z,73.86
2018-06-12T11:34:48.876Z,75.21
2018-06-12T11:35:48.876Z,74.98
2018-06-12T11:36:48.879Z,75.27
2018-06-12T11:37:49.102Z,75.37
2018-06-12T11:38:48.887Z,75.49
2018-06-12T11:39:48.883Z,75.02
2018-06-12T11:40:48.886Z,74.44
2018-06-12T11:41:49.471Z,74.25
2018-06-12T11:42:48.890Z,73.47
2018-06-12T11:43:48.895Z,74.15
2018-06-12T11:44:48.893Z,74.34
2018-06-12T11:45:48.898Z,73.96
2018-06-12T11:46:48.892Z,73.61
2018-06-12T11:47:48.896Z,73.90
2018-06-12T11:48:48.901Z,74.03
2018-06-12T11:49:48.900Z,74.03
2018-06-12T11:50:48.903Z,72.97
2018-06-12T11:51:48.902Z,73.71
2018-06-12T11:52:48.905Z,72.17
2018-06-12T11:53:48.907Z,71.97
2018-06-12T11:54:48.913Z,72.17
2018-06-12T11:55:48.910Z,72.74
2018-06-12T11:56:48.911Z,72.55
2018-06-12T11:57:48.948Z,72.49
2018-06-12T11:58:48.918Z,73.36
2018-06-12T11:59:49.028Z,72.59
2018-06-12T12:00:48.949Z,71.53
2018-06-12T12:01:48.985Z,70.86
2018-06-12T12:02:48.951Z,71.91
2018-06-12T12:03:49.479Z,71.04
2018-06-12T12:04:48.929Z,71.62
2018-06-12T12:05:49.120Z,71.91
2018-06-12T12:06:49.044Z,72.68
2018-06-12T12:07:50.283Z,72.49
2018-06-12T12:08:49.207Z,72.97
2018-06-12T12:09:49.132Z,72.78
2018-06-12T12:10:49.622Z,71.47
2018-06-12T12:11:49.187Z,71.53
2018-06-12T12:12:49.121Z,71.37
2018-06-12T12:13:49.189Z,71.18
2018-06-12T12:14:49.016Z,71.70
2018-06-12T12:15:49.101Z,73.24
2018-06-12T12:16:49.085Z,71.60
2018-06-12T12:17:49.257Z,70.25
2018-06-12T12:18:48.975Z,70.35
2018-06-12T12:19:48.973Z,72.31
2018-06-12T12:20:49.082Z,68.45
2018-06-12T12:21:49.135Z,67.07
2018-06-12T12:22:49.402Z,67.55
2018-06-12T12:23:48.960Z,69.23
2018-06-12T12:24:49.041Z,69.71
2018-06-12T12:25:49.011Z,68.84
2018-06-12T12:26:49.011Z,67.58
2018-06-12T12:27:49.215Z,67.30
2018-06-12T12:28:49.138Z,68.07
2018-06-12T12:29:49.065Z,67.04
2018-06-12T12:30:48.998Z,67.43
2018-06-12T12:31:49.003Z,67.17
2018-06-12T12:32:48.997Z,66.36
2018-06-12T12:33:49.061Z,67.43
2018-06-12T12:34:49.015Z,66.82
2018-06-12T12:35:49.090Z,68.35
2018-06-12T12:36:49.046Z,67.68
2018-06-12T12:37:48.993Z,68.16
2018-06-12T12:38:49.377Z,68.84
2018-06-12T12:39:49.090Z,69.61
2018-06-12T12:40:49.285Z,68.84
2018-06-12T12:41:49.014Z,67.58
2018-06-12T12:42:49.006Z,67.00
2018-06-12T12:43:49.008Z,67.52
2018-06-12T12:44:49.013Z,68.10
2018-06-12T12:45:49.013Z,68.19
2018-06-12T12:46:49.110Z,67.14
2018-06-12T12:47:49.021Z,66.91
2018-06-12T12:48:49.058Z,68.65
2018-06-12T12:49:49.034Z,66.94
2018-06-12T12:50:49.027Z,66.27
2018-06-12T12:51:49.043Z,66.20
2018-06-12T12:52:49.180Z,67.27